createdAt,value
2017-08-19T00:01:22.163Z,100894.22
2017-08-19T00:03:50.525Z,100888.80
2017-08-19T00:06:19.130Z,100892.33
2017-08-19T00:08:47.482Z,100890.11
2017-08-19T00:11:15.855Z,100904.94
2017-08-19T00:13:44.727Z,100900.87
2017-08-19T00:16:13.860Z,100905.30
2017-08-19T00:18:42.214Z,100901.28
2017-08-19T00:21:10.913Z,100911.41
2017-08-19T00:23:39.406Z,100905.61
2017-08-19T00:26:07.755Z,100900.77
2017-08-19T00:28:37.587Z,100898.02
2017-08-19T00:31:05.950Z,100896.22
2017-08-19T00:33:34.357Z,100889.69
2017-08-19T00:36:03.270Z,100891.98
2017-08-19T00:38:31.644Z,100871.73
2017-08-19T00:41:00.007Z,100853.87
2017-08-19T00:43:28.669Z,100860.69
2017-08-19T00:45:57.064Z,100889.15
2017-08-19T00:48:25.417Z,100915.52
2017-08-19T00:50:54.109Z,100923.12
2017-08-19T00:53:22.438Z,100921.96
2017-08-19T00:55:50.802Z,100909.20
2017-08-19T00:58:19.366Z,100926.91
2017-08-19T01:00:47.716Z,100913.10
2017-08-19T01:03:16.811Z,100919.63
2017-08-19T01:05:46.246Z,100930.82
2017-08-19T01:08:14.590Z,100933.73
2017-08-19T01:10:42.942Z,100932.45
2017-08-19T01:13:11.547Z,100934.15
2017-08-19T01:15:40.647Z,100937.20
2017-08-19T01:18:08.990Z,100944.48
2017-08-19T01:20:37.505Z,100942.22
2017-08-19T01:23:05.860Z,100947.56
2017-08-19T01:25:52.362Z,100945.66
2017-08-19T01:28:20.706Z,100943.66
2017-08-19T01:30:49.073Z,100948.87
2017-08-19T01:33:18.113Z,100954.92
2017-08-19T01:35:46.457Z,100957.28
2017-08-19T01:38:14.806Z,100953.48
2017-08-19T01:40:44.208Z,100958.92
2017-08-19T01:43:12.578Z,100951.39
2017-08-19T01:45:41.720Z,100959.41
2017-08-19T01:48:10.309Z,100957.72
2017-08-19T01:50:38.650Z,100962.39
2017-08-19T01:53:07.762Z,100964.12
2017-08-19T01:55:36.654Z,100972.37
2017-08-19T01:58:05.062Z,100970.84
2017-08-19T02:00:33.420Z,100968.13
2017-08-19T02:03:02.105Z,100978.53
2017-08-19T02:05:30.454Z,100969.58
2017-08-19T02:07:58.794Z,100969.85
2017-08-19T02:10:27.313Z,100978.80
2017-08-19T02:12:55.654Z,100976.36
2017-08-19T02:15:24.003Z,100975.84
2017-08-19T02:17:52.586Z,100979.77
2017-08-19T02:20:20.936Z,100979.50
2017-08-19T02:22:49.306Z,100979.52
2017-08-19T02:25:18.130Z,100981.77
2017-08-19T02:27:46.503Z,100984.64
2017-08-19T02:30:14.856Z,100973.67
2017-08-19T02:32:43.375Z,100974.62
2017-08-19T02:35:11.746Z,100976.78
2017-08-19T02:37:40.126Z,100968.97
2017-08-19T02:40:09.225Z,100983.05
2017-08-19T02:42:37.603Z,100982.21
2017-08-19T02:45:05.946Z,100983.09
2017-08-19T02:47:34.873Z,100983.77
2017-08-19T02:50:03.233Z,100996.24
2017-08-19T02:52:32.375Z,100996.80
2017-08-19T02:55:00.953Z,101001.31
2017-08-19T02:57:29.296Z,101003.72
2017-08-19T02:59:58.437Z,101007.17
2017-08-19T03:02:27.124Z,101004.30
2017-08-19T03:04:55.503Z,101011.11
2017-08-19T03:07:23.861Z,101018.05
2017-08-19T03:09:52.397Z,101016.74
2017-08-19T03:12:20.725Z,101018.83
2017-08-19T03:14:49.093Z,101029.44
2017-08-19T03:17:17.870Z,101028.81
2017-08-19T03:19:46.278Z,101033.53
2017-08-19T03:22:14.624Z,101039.53
2017-08-19T03:24:43.546Z,101042.19
2017-08-19T03:27:11.885Z,101039.88
2017-08-19T03:29:40.233Z,101048.48
2017-08-19T03:32:09.194Z,101041.16
2017-08-19T03:34:37.543Z,101047.55
2017-08-19T03:37:05.882Z,101059.92
2017-08-19T03:39:34.432Z,101062.76
2017-08-19T03:42:02.782Z,101063.16
2017-08-19T03:44:31.911Z,101067.53
2017-08-19T03:47:00.698Z,101070.01
2017-08-19T03:49:29.043Z,101065.61
2017-08-19T03:51:57.424Z,101063.62
2017-08-19T03:54:25.956Z,101065.85
2017-08-19T03:56:54.329Z,101063.52
2017-08-19T03:59:22.723Z,101072.23
2017-08-19T04:01:51.386Z,101076.00
2017-08-19T04:04:19.753Z,101073.54
2017-08-19T04:06:48.113Z,101072.72
2017-08-19T04:09:17.223Z,101072.48
2017-08-19T04:11:45.551Z,101074.70
2017-08-19T04:14:13.898Z,101082.06
2017-08-19T04:16:42.656Z,101075.67
2017-08-19T04:19:10.990Z,101074.61
2017-08-19T04:21:39.334Z,101082.44
2017-08-19T04:24:08.186Z,101080.67
2017-08-19T04:26:36.527Z,101080.03
2017-08-19T04:29:04.891Z,101085.13
2017-08-19T04:31:33.641Z,101092.41
2017-08-19T04:34:02.777Z,101085.23
2017-08-19T04:36:31.146Z,101087.98
2017-08-19T04:38:59.841Z,101082.39
2017-08-19T04:41:28.183Z,101095.45
2017-08-19T04:43:57.294Z,101097.89
2017-08-19T04:46:26.737Z,101090.97
2017-08-19T04:48:55.092Z,101096.66
2017-08-19T04:51:23.447Z,101086.86
2017-08-19T04:53:52.053Z,101086.91
2017-08-19T04:56:20.408Z,101084.16
2017-08-19T04:58:48.775Z,101087.67
2017-08-19T05:01:17.331Z,101090.64
2017-08-19T05:03:45.678Z,101084.27
2017-08-19T05:06:14.022Z,101088.93
2017-08-19T05:08:42.877Z,101086.77
2017-08-19T05:11:11.230Z,101089.91
2017-08-19T05:13:39.623Z,101093.41
2017-08-19T05:16:08.382Z,101090.42
2017-08-19T05:18:36.740Z,101091.98
2017-08-19T05:21:05.111Z,101099.31
2017-08-19T05:23:33.629Z,101101.84
2017-08-19T05:26:01.966Z,101093.89
2017-08-19T05:28:30.331Z,101101.89
2017-08-19T05:30:59.201Z,101100.66
2017-08-19T05:33:27.571Z,101102.14
2017-08-19T05:35:55.927Z,101097.13
2017-08-19T05:38:24.829Z,101105.70
2017-08-19T05:40:53.177Z,101100.88
2017-08-19T05:43:22.305Z,101098.04
2017-08-19T05:45:50.887Z,101101.37
2017-08-19T05:48:19.237Z,101103.81
2017-08-19T05:50:48.358Z,101104.10
2017-08-19T05:53:16.959Z,101105.12
2017-08-19T05:55:45.317Z,101115.63
2017-08-19T05:58:13.672Z,101110.92
2017-08-19T06:00:42.526Z,101106.75
2017-08-19T06:03:10.866Z,101114.81
2017-08-19T06:05:39.227Z,101110.30
2017-08-19T06:08:08.651Z,101109.95
2017-08-19T06:10:37.007Z,101111.85
2017-08-19T06:13:06.123Z,101109.27
2017-08-19T06:15:34.753Z,101117.82
2017-08-19T06:18:03.109Z,101120.02
2017-08-19T06:20:31.467Z,101117.91
2017-08-19T06:23:00.277Z,101122.06
2017-08-19T06:25:28.663Z,101129.88
2017-08-19T06:27:57.015Z,101128.84
2017-08-19T06:30:25.819Z,101125.36
2017-08-19T06:32:54.268Z,101124.34
2017-08-19T06:35:22.630Z,101127.63
2017-08-19T06:37:51.255Z,101125.03
2017-08-19T06:40:19.642Z,101131.69
2017-08-19T06:42:48.035Z,101136.06
2017-08-19T06:45:16.946Z,101140.47
2017-08-19T06:47:45.330Z,101145.02
2017-08-19T06:50:13.721Z,101142.45
2017-08-19T06:52:42.404Z,101147.87
2017-08-19T06:55:10.770Z,101142.72
2017-08-19T06:57:39.145Z,101136.34
2017-08-19T07:00:07.666Z,101141.16
2017-08-19T07:02:36.033Z,101138.50
2017-08-19T07:05:04.414Z,101137.98
2017-08-19T07:07:33.103Z,101146.75
2017-08-19T07:10:01.469Z,101149.72
2017-08-19T07:12:29.828Z,101137.77
2017-08-19T07:14:58.485Z,101153.22
2017-08-19T07:17:26.837Z,101148.20
2017-08-19T07:19:55.959Z,101151.80
2017-08-19T07:22:24.764Z,101147.49
2017-08-19T07:24:53.141Z,101152.91
2017-08-19T07:27:21.513Z,101145.66
2017-08-19T07:29:50.394Z,101153.47
2017-08-19T07:32:18.773Z,101153.06
2017-08-19T07:34:47.132Z,101144.83
2017-08-19T07:37:15.845Z,101147.09
2017-08-19T07:39:44.226Z,101146.00
2017-08-19T07:42:12.579Z,101148.87
2017-08-19T07:44:41.146Z,101143.74
2017-08-19T07:47:09.495Z,101157.75
2017-08-19T07:49:37.871Z,101152.97
2017-08-19T07:52:06.522Z,101161.75
2017-08-19T07:54:34.871Z,101158.27
2017-08-19T07:57:03.217Z,101160.92
2017-08-19T07:59:32.180Z,101156.83
2017-08-19T08:02:00.533Z,101160.43
2017-08-19T08:04:29.673Z,101160.31
2017-08-19T08:06:58.461Z,101158.11
2017-08-19T08:09:26.844Z,101171.42
2017-08-19T08:11:55.203Z,101163.27
2017-08-19T08:14:24.087Z,101166.07
2017-08-19T08:16:52.478Z,101168.78
2017-08-19T08:19:20.826Z,101171.68
2017-08-19T08:21:49.356Z,101162.69
2017-08-19T08:24:17.725Z,101183.14
2017-08-19T08:26:46.088Z,101175.70
2017-08-19T08:29:14.787Z,101179.58
2017-08-19T08:31:43.201Z,101177.00
2017-08-19T08:34:11.586Z,101184.09
2017-08-19T08:36:40.447Z,101183.66
2017-08-19T08:39:08.778Z,101188.89
2017-08-19T08:41:37.895Z,101190.38
2017-08-19T08:44:07.409Z,101192.26
2017-08-19T08:46:35.836Z,101185.03
2017-08-19T08:49:04.212Z,101186.02
2017-08-19T08:51:32.755Z,101188.31
2017-08-19T08:54:01.127Z,101183.09
2017-08-19T08:56:29.503Z,101183.95
2017-08-19T08:58:58.427Z,101180.80
2017-08-19T09:01:26.812Z,101176.28
2017-08-19T09:03:55.185Z,101175.11
2017-08-19T09:06:23.720Z,101171.88
2017-08-19T09:08:52.842Z,101168.55
2017-08-19T09:11:21.186Z,101167.87
2017-08-19T09:13:50.141Z,101164.01
2017-08-19T09:16:18.568Z,101166.05
2017-08-19T09:18:46.922Z,101168.43
2017-08-19T09:21:15.785Z,101162.59
2017-08-19T09:23:44.122Z,101173.95
2017-08-19T09:26:13.260Z,101176.72
2017-08-19T09:28:41.865Z,101179.25
2017-08-19T09:31:10.232Z,101177.38
2017-08-19T09:33:38.600Z,101182.86
2017-08-19T09:36:07.288Z,101192.14
2017-08-19T09:38:35.626Z,101195.45
2017-08-19T09:41:03.992Z,101191.77
2017-08-19T09:43:32.710Z,101186.60
2017-08-19T09:46:01.085Z,101191.66
2017-08-19T09:48:29.477Z,101188.60
2017-08-19T09:50:58.195Z,101195.94
2017-08-19T09:53:26.572Z,101219.17
2017-08-19T09:55:54.944Z,101205.46
2017-08-19T09:58:23.501Z,101206.48
2017-08-19T10:00:51.876Z,101200.16
2017-08-19T10:03:20.257Z,101212.11
2017-08-19T10:05:49.039Z,101203.69
2017-08-19T10:08:34.903Z,101198.42
2017-08-19T10:11:21.457Z,101205.28
2017-08-19T10:13:49.806Z,101197.72
2017-08-19T10:16:18.159Z,101197.17
2017-08-19T10:18:46.793Z,101198.81
2017-08-19T10:21:15.179Z,101197.66
2017-08-19T10:23:43.563Z,101198.06
2017-08-19T10:26:12.548Z,101192.20
2017-08-19T10:28:40.935Z,101199.80
2017-08-19T10:31:09.318Z,101205.59
2017-08-19T10:33:37.903Z,101206.95
2017-08-19T10:36:06.250Z,101211.75
2017-08-19T10:38:34.606Z,101201.07
2017-08-19T10:41:03.444Z,101204.95
2017-08-19T10:43:31.814Z,101204.17
2017-08-19T10:46:00.153Z,101226.00
2017-08-19T10:48:29.041Z,101207.55
2017-08-19T10:50:57.388Z,101216.28
2017-08-19T10:53:25.729Z,101215.38
2017-08-19T10:55:54.407Z,101222.09
2017-08-19T10:58:22.790Z,101215.53
2017-08-19T11:00:51.173Z,101218.80
2017-08-19T11:03:19.954Z,101212.87
2017-08-19T11:05:48.293Z,101221.44
2017-08-19T11:08:16.627Z,101219.90
2017-08-19T11:10:45.485Z,101206.87
2017-08-19T11:13:13.839Z,101216.06
2017-08-19T11:15:42.181Z,101223.67
2017-08-19T11:18:10.876Z,101222.74
2017-08-19T11:20:39.257Z,101240.67
2017-08-19T11:23:07.621Z,101243.27
2017-08-19T11:25:36.507Z,101246.86
2017-08-19T11:28:04.863Z,101246.51
2017-08-19T11:30:33.999Z,101247.45
2017-08-19T11:33:02.974Z,101279.44
2017-08-19T11:35:31.327Z,101247.72
2017-08-19T11:38:00.467Z,101245.39
2017-08-19T11:40:29.125Z,101254.37
2017-08-19T11:42:57.484Z,101250.69
2017-08-19T11:45:25.830Z,101252.15
2017-08-19T11:47:54.356Z,101242.91
2017-08-19T11:50:22.746Z,101247.89
2017-08-19T11:52:51.090Z,101251.77
2017-08-19T11:55:19.941Z,101255.97
2017-08-19T11:57:48.323Z,101254.78
2017-08-19T12:00:16.697Z,101253.22
2017-08-19T12:02:45.366Z,101256.70
2017-08-19T12:05:13.711Z,101251.39
2017-08-19T12:07:42.083Z,101259.86
2017-08-19T12:10:10.773Z,101265.55
2017-08-19T12:12:39.157Z,101267.81
2017-08-19T12:15:07.476Z,101258.59
2017-08-19T12:17:36.429Z,101263.72
2017-08-19T12:20:04.804Z,101263.58
2017-08-19T12:22:33.178Z,101262.41
2017-08-19T12:25:01.727Z,101265.56
2017-08-19T12:27:30.058Z,101261.13
2017-08-19T12:29:58.413Z,101269.40
2017-08-19T12:32:26.954Z,101268.10
2017-08-19T12:34:55.309Z,101261.03
2017-08-19T12:37:23.693Z,101264.27
2017-08-19T12:39:52.419Z,101266.62
2017-08-19T12:42:20.792Z,101262.21
2017-08-19T12:44:49.159Z,101256.41
2017-08-19T12:47:17.781Z,101262.11
2017-08-19T12:49:46.134Z,101263.38
2017-08-19T12:52:14.510Z,101254.52
2017-08-19T12:54:43.186Z,101262.21
2017-08-19T12:57:11.536Z,101269.73
2017-08-19T12:59:39.894Z,101264.59
2017-08-19T13:02:09.609Z,101264.57
2017-08-19T13:04:38.020Z,101265.11
2017-08-19T13:07:06.379Z,101264.59
2017-08-19T13:09:34.929Z,101278.09
2017-08-19T13:12:03.313Z,101273.55
2017-08-19T13:14:31.653Z,101263.72
2017-08-19T13:17:00.279Z,101271.42
2017-08-19T13:19:28.632Z,101258.90
2017-08-19T13:21:56.996Z,101268.31
2017-08-19T13:24:25.673Z,101270.11
2017-08-19T13:26:54.204Z,101258.56
2017-08-19T13:29:22.575Z,101267.05
2017-08-19T13:31:51.226Z,101286.52
2017-08-19T13:34:19.592Z,101259.98
2017-08-19T13:36:47.921Z,101270.94
2017-08-19T13:39:16.466Z,101264.83
2017-08-19T13:41:44.815Z,101273.50
2017-08-19T13:44:13.177Z,101270.45
2017-08-19T13:46:42.088Z,101267.96
2017-08-19T13:49:10.459Z,101282.66
2017-08-19T13:51:38.823Z,101275.80
2017-08-19T13:54:07.470Z,101273.38
2017-08-19T13:56:35.863Z,101277.28
2017-08-19T13:59:04.247Z,101275.84
2017-08-19T14:01:32.902Z,101277.25
2017-08-19T14:04:01.276Z,101287.91
2017-08-19T14:06:29.628Z,101287.36
2017-08-19T14:08:58.364Z,101281.93
2017-08-19T14:11:26.726Z,101283.15
2017-08-19T14:13:55.126Z,101280.36
2017-08-19T14:16:23.934Z,101287.81
2017-08-19T14:18:52.302Z,101291.73
2017-08-19T14:21:20.652Z,101289.39
2017-08-19T14:23:49.414Z,101292.16
2017-08-19T14:26:17.768Z,101299.38
2017-08-19T14:28:46.159Z,101300.39
2017-08-19T14:31:15.348Z,101297.89
2017-08-19T14:33:43.702Z,101296.06
2017-08-19T14:36:12.031Z,101294.86
2017-08-19T14:38:40.572Z,101309.02
2017-08-19T14:41:08.925Z,101317.42
2017-08-19T14:43:37.305Z,101331.20
2017-08-19T14:46:06.089Z,101324.41
2017-08-19T14:48:34.432Z,101332.41
2017-08-19T14:51:02.789Z,101338.02
2017-08-19T14:53:31.401Z,101333.13
2017-08-19T14:55:59.757Z,101341.02
2017-08-19T14:58:28.127Z,101346.72
2017-08-19T15:00:56.871Z,101338.71
2017-08-19T15:03:25.249Z,101341.73
2017-08-19T15:05:53.619Z,101340.41
2017-08-19T15:08:22.548Z,101343.77
2017-08-19T15:10:50.910Z,101332.80
2017-08-19T15:13:19.282Z,101325.89
2017-08-19T15:15:48.044Z,101335.03
2017-08-19T15:18:17.184Z,101325.21
2017-08-19T15:20:45.522Z,101327.06
2017-08-19T15:23:14.238Z,101321.92
2017-08-19T15:25:42.616Z,101312.89
2017-08-19T15:28:10.973Z,101322.87
2017-08-19T15:30:39.707Z,101332.58
2017-08-19T15:33:08.128Z,101335.48
2017-08-19T15:35:36.506Z,101328.29
2017-08-19T15:38:06.091Z,101340.30
2017-08-19T15:40:34.422Z,101332.72
2017-08-19T15:43:02.823Z,101332.37
2017-08-19T15:45:31.609Z,101347.38
2017-08-19T15:47:59.967Z,101350.07
2017-08-19T15:50:28.331Z,101353.66
2017-08-19T15:52:57.014Z,101357.66
2017-08-19T15:55:25.380Z,101351.52
2017-08-19T15:57:54.507Z,101345.72
2017-08-19T16:00:23.517Z,101366.06
2017-08-19T16:02:51.871Z,101348.77
2017-08-19T16:05:20.251Z,101351.44
2017-08-19T16:07:48.781Z,101343.97
2017-08-19T16:10:17.136Z,101347.67
2017-08-19T16:12:45.517Z,101343.67
2017-08-19T16:15:14.223Z,101349.20
2017-08-19T16:17:42.568Z,101345.45
2017-08-19T16:20:10.998Z,101338.89
2017-08-19T16:22:40.321Z,101349.77
2017-08-19T16:25:08.694Z,101345.42
2017-08-19T16:27:37.060Z,101344.66
2017-08-19T16:30:05.693Z,101339.08
2017-08-19T16:32:34.041Z,101344.96
2017-08-19T16:35:02.419Z,101340.16
2017-08-19T16:37:31.077Z,101343.01
2017-08-19T16:39:59.450Z,101341.74
2017-08-19T16:42:27.808Z,101339.59
2017-08-19T16:44:56.409Z,101354.42
2017-08-19T16:47:24.794Z,101343.13
2017-08-19T16:49:53.154Z,101344.47
2017-08-19T16:52:22.028Z,101344.39
2017-08-19T16:54:50.407Z,101344.75
2017-08-19T16:57:18.769Z,101352.10
2017-08-19T16:59:47.689Z,101348.83
2017-08-19T17:02:16.037Z,101348.02
2017-08-19T17:04:45.199Z,101354.34
2017-08-19T17:07:14.125Z,101350.66
2017-08-19T17:09:42.477Z,101360.40
2017-08-19T17:12:10.857Z,101363.20
2017-08-19T17:14:39.444Z,101365.07
2017-08-19T17:17:07.794Z,101371.58
2017-08-19T17:19:36.181Z,101368.48
2017-08-19T17:22:05.071Z,101367.72
2017-08-19T17:24:33.464Z,101373.88
2017-08-19T17:27:01.813Z,101372.64
2017-08-19T17:29:30.895Z,101373.91
2017-08-19T17:31:59.249Z,101378.72
2017-08-19T17:34:28.392Z,101377.35
2017-08-19T17:36:57.179Z,101396.91
2017-08-19T17:39:25.536Z,101393.42
2017-08-19T17:41:53.892Z,101392.66
2017-08-19T17:44:22.604Z,101395.98
2017-08-19T17:46:50.941Z,101403.66
2017-08-19T17:49:19.284Z,101402.79
2017-08-19T17:51:48.205Z,101406.05
2017-08-19T17:54:16.565Z,101403.13
2017-08-19T17:56:44.929Z,101414.93
2017-08-19T17:59:13.450Z,101410.82
2017-08-19T18:01:41.835Z,101418.43
2017-08-19T18:04:10.964Z,101416.97
2017-08-19T18:06:39.739Z,101424.57
2017-08-19T18:09:08.079Z,101454.64
2017-08-19T18:11:36.498Z,101474.78
2017-08-19T18:14:05.729Z,101496.27
2017-08-19T18:16:34.078Z,101480.39
2017-08-19T18:19:02.424Z,101490.63
2017-08-19T18:21:30.961Z,101488.61
2017-08-19T18:23:59.309Z,101502.16
2017-08-19T18:26:27.660Z,101507.70
2017-08-19T18:28:56.308Z,101514.33
2017-08-19T18:31:24.653Z,101522.58
2017-08-19T18:33:53.910Z,101514.92
2017-08-19T18:36:22.538Z,101511.47
2017-08-19T18:38:50.975Z,101505.47
2017-08-19T18:41:19.356Z,101506.45
2017-08-19T18:43:47.894Z,101515.34
2017-08-19T18:46:16.265Z,101513.02
2017-08-19T18:48:44.659Z,101513.39
2017-08-19T18:51:13.216Z,101516.67
2017-08-19T18:53:41.574Z,101514.69
2017-08-19T18:56:09.924Z,101518.55
2017-08-19T18:58:38.736Z,101517.73
2017-08-19T19:01:07.146Z,101514.28
2017-08-19T19:03:35.511Z,101511.97
2017-08-19T19:06:04.190Z,101520.92
2017-08-19T19:08:32.518Z,101513.42
2017-08-19T19:11:00.891Z,101520.17
2017-08-19T19:13:29.425Z,101525.06
2017-08-19T19:15:57.758Z,101536.47
2017-08-19T19:18:26.125Z,101541.25
2017-08-19T19:20:55.031Z,101541.72
2017-08-19T19:23:23.384Z,101544.08
2017-08-19T19:25:51.744Z,101550.93
2017-08-19T19:28:20.266Z,101547.45
2017-08-19T19:30:48.609Z,101550.47
2017-08-19T19:33:16.952Z,101559.43
2017-08-19T19:35:45.609Z,101555.53
2017-08-19T19:38:13.975Z,101559.43
2017-08-19T19:40:42.353Z,101568.25
2017-08-19T19:43:10.851Z,101572.05
2017-08-19T19:45:39.236Z,101569.05
2017-08-19T19:48:07.592Z,101560.28
2017-08-19T19:50:36.758Z,101573.12
2017-08-19T19:53:05.131Z,101575.22
2017-08-19T19:55:33.495Z,101567.72
2017-08-19T19:58:01.923Z,101572.70
2017-08-19T20:00:30.339Z,101572.55
2017-08-19T20:02:58.756Z,101581.83
2017-08-19T20:05:27.607Z,101574.60
2017-08-19T20:07:55.988Z,101574.46
2017-08-19T20:10:24.354Z,101578.84
2017-08-19T20:12:52.787Z,101578.17
2017-08-19T20:15:21.175Z,101574.42
2017-08-19T20:17:49.568Z,101572.73
2017-08-19T20:20:17.979Z,101584.47
2017-08-19T20:22:46.396Z,101578.17
2017-08-19T20:25:14.781Z,101588.80
2017-08-19T20:27:43.282Z,101584.47
2017-08-19T20:30:11.705Z,101581.05
2017-08-19T20:32:40.118Z,101581.42
2017-08-19T20:35:08.528Z,101584.92
2017-08-19T20:37:37.668Z,101575.05
2017-08-19T20:40:06.082Z,101576.41
2017-08-19T20:42:34.540Z,101580.88
2017-08-19T20:45:02.891Z,101583.08
2017-08-19T20:47:31.293Z,101586.28
2017-08-19T20:49:59.756Z,101582.75
2017-08-19T20:52:28.114Z,101580.40
2017-08-19T20:54:57.207Z,101575.87
2017-08-19T20:57:26.409Z,101577.73
2017-08-19T20:59:54.763Z,101575.73
2017-08-19T21:02:23.135Z,101581.10
2017-08-19T21:04:51.597Z,101576.56
2017-08-19T21:07:19.972Z,101576.27
2017-08-19T21:09:48.351Z,101570.55
2017-08-19T21:12:16.868Z,101571.80
2017-08-19T21:14:45.232Z,101567.34
2017-08-19T21:17:13.573Z,101567.55
2017-08-19T21:19:42.093Z,101570.80
2017-08-19T21:22:10.475Z,101572.90
2017-08-19T21:24:38.862Z,101572.45
2017-08-19T21:27:07.258Z,101572.94
2017-08-19T21:29:35.656Z,101577.24
2017-08-19T21:32:04.038Z,101584.39
2017-08-19T21:34:32.520Z,101581.50
2017-08-19T21:37:00.912Z,101575.24
2017-08-19T21:39:29.270Z,101586.21
2017-08-19T21:41:58.408Z,101583.56
2017-08-19T21:44:26.815Z,101580.49
2017-08-19T21:46:55.224Z,101581.09
2017-08-19T21:49:23.711Z,101577.79
2017-08-19T21:51:52.062Z,101578.01
2017-08-19T21:54:20.490Z,101581.16
2017-08-19T21:56:48.967Z,101580.00
2017-08-19T21:59:17.364Z,101584.16
2017-08-19T22:01:45.840Z,101582.59
2017-08-19T22:04:14.274Z,101584.55
2017-08-19T22:06:42.630Z,101586.67
2017-08-19T22:09:11.052Z,101574.22
2017-08-19T22:11:39.471Z,101578.05
2017-08-19T22:14:07.846Z,101578.79
2017-08-19T22:16:36.185Z,101581.86
2017-08-19T22:19:04.792Z,101584.97
2017-08-19T22:21:33.142Z,101582.84
2017-08-19T22:24:01.524Z,101579.20
2017-08-19T22:26:30.677Z,101583.53
2017-08-19T22:28:59.067Z,101580.09
2017-08-19T22:31:27.432Z,101580.62
2017-08-19T22:33:55.841Z,101583.47
2017-08-19T22:36:24.234Z,101582.66
2017-08-19T22:38:52.601Z,101580.71
2017-08-19T22:41:21.039Z,101579.03
2017-08-19T22:43:49.396Z,101578.56
2017-08-19T22:46:17.752Z,101580.67
2017-08-19T22:48:46.160Z,101578.61
2017-08-19T22:51:14.505Z,101578.25
2017-08-19T22:53:42.866Z,101574.94
2017-08-19T22:56:11.262Z,101576.41
2017-08-19T22:58:39.636Z,101585.40
2017-08-19T23:01:07.982Z,101578.52
2017-08-19T23:03:36.791Z,101586.76
2017-08-19T23:06:05.146Z,101587.59
2017-08-19T23:08:33.506Z,101585.69
2017-08-19T23:11:01.911Z,101584.80
2017-08-19T23:13:30.290Z,101579.19
2017-08-19T23:15:58.644Z,101581.90
2017-08-19T23:18:27.045Z,101582.59
2017-08-19T23:20:55.369Z,101586.33
2017-08-19T23:23:24.478Z,101586.02
2017-08-19T23:25:52.954Z,101587.62
2017-08-19T23:28:22.070Z,101583.77
2017-08-19T23:30:50.418Z,101586.50
2017-08-19T23:33:18.799Z,101582.31
2017-08-19T23:35:47.141Z,101580.24
2017-08-19T23:38:15.663Z,101575.78
2017-08-19T23:40:44.053Z,101568.19
2017-08-19T23:43:12.403Z,101564.30
2017-08-19T23:45:40.769Z,101563.27
2017-08-19T23:48:09.291Z,101566.58
2017-08-19T23:56:47.926Z,101563.09
2017-08-19T23:59:16.672Z,101555.11
